createdAt,value
2022-11-17T00:03:04.617Z,4.83
2022-11-17T00:08:06.613Z,3.60
2022-11-17T00:13:29.092Z,3.57
2022-11-17T00:18:49.340Z,3.90
2022-11-17T00:23:51.240Z,4.43
2022-11-17T00:28:54.762Z,4.80
2022-11-17T00:34:05.951Z,4.13
2022-11-17T00:39:07.985Z,5.10
2022-11-17T00:44:11.140Z,5.30
2022-11-17T00:49:13.311Z,4.17
2022-11-17T00:54:15.416Z,4.60
2022-11-17T00:59:18.604Z,5.30
2022-11-17T01:04:20.452Z,5.03
2022-11-17T01:09:23.083Z,5.27
2022-11-17T01:14:27.425Z,5.87
2022-11-17T01:19:29.605Z,6.03
2022-11-17T01:24:31.403Z,6.90
2022-11-17T01:29:34.572Z,6.97
2022-11-17T01:34:36.371Z,6.77
2022-11-17T01:39:38.229Z,6.57
2022-11-17T01:44:58.818Z,7.23
2022-11-17T01:50:02.659Z,7.30
2022-11-17T01:55:05.089Z,7.47
2022-11-17T02:00:10.162Z,7.03
2022-11-17T02:05:22.676Z,8.03
2022-11-17T02:10:24.448Z,8.10
2022-11-17T02:15:28.706Z,8.30
2022-11-17T02:20:42.395Z,8.40
2022-11-17T02:26:08.624Z,8.60
2022-11-17T02:31:18.478Z,8.10
2022-11-17T02:36:21.535Z,8.73
2022-11-17T02:41:26.381Z,9.30
2022-11-17T02:46:32.815Z,8.40
2022-11-17T02:51:34.579Z,8.30
2022-11-17T02:56:40.971Z,8.47
2022-11-17T03:01:59.343Z,9.50
2022-11-17T03:07:16.471Z,9.37
2022-11-17T03:12:21.751Z,8.97
2022-11-17T03:17:28.206Z,9.40
2022-11-17T03:22:33.620Z,9.37
2022-11-17T03:27:35.976Z,9.00
2022-11-17T03:32:40.411Z,10.40
2022-11-17T03:37:43.615Z,10.63
2022-11-17T03:42:46.792Z,11.10
2022-11-17T03:47:50.139Z,11.07
2022-11-17T03:52:51.933Z,11.97
2022-11-17T03:57:55.320Z,11.63
2022-11-17T04:02:59.072Z,10.40
2022-11-17T04:08:00.968Z,11.23
2022-11-17T04:13:21.366Z,11.20
2022-11-17T04:18:24.661Z,11.40
2022-11-17T04:23:26.508Z,13.00
2022-11-17T04:28:38.130Z,13.63
2022-11-17T04:33:42.024Z,12.77
2022-11-17T04:38:44.361Z,13.50
2022-11-17T04:43:46.504Z,14.60
2022-11-17T04:48:49.855Z,15.43
2022-11-17T04:53:51.972Z,15.80
2022-11-17T04:58:53.878Z,15.47
2022-11-17T05:03:58.052Z,15.73
2022-11-17T05:09:00.685Z,17.30
2022-11-17T05:14:02.635Z,16.87
2022-11-17T05:19:05.926Z,16.37
2022-11-17T05:24:08.673Z,18.13
2022-11-17T05:29:11.227Z,17.77
2022-11-17T05:34:15.234Z,17.90
2022-11-17T05:39:16.984Z,17.20
2022-11-17T05:44:18.811Z,18.33
2022-11-17T05:49:21.984Z,17.30
2022-11-17T05:54:23.776Z,18.70
2022-11-17T05:59:28.226Z,19.47
2022-11-17T06:04:31.538Z,19.80
2022-11-17T06:09:34.714Z,20.27
2022-11-17T06:14:37.611Z,19.80
2022-11-17T06:19:42.457Z,19.80
2022-11-17T06:24:44.235Z,20.97
2022-11-17T06:29:46.839Z,20.67
2022-11-17T06:34:55.294Z,21.70
2022-11-17T06:39:58.036Z,21.90
2022-11-17T06:44:59.758Z,21.33
2022-11-17T06:50:02.858Z,22.47
2022-11-17T06:55:05.498Z,21.83
2022-11-17T07:00:08.449Z,22.70
2022-11-17T07:05:11.565Z,22.33
2022-11-17T07:10:13.310Z,22.20
2022-11-17T07:15:15.181Z,21.30
2022-11-17T07:20:18.624Z,21.53
2022-11-17T07:25:22.529Z,20.90
2022-11-17T07:30:24.430Z,20.63
2022-11-17T07:35:27.710Z,20.17
2022-11-17T07:40:29.588Z,20.70
2022-11-17T07:45:32.326Z,21.40
2022-11-17T07:50:36.955Z,21.83
2022-11-17T07:55:38.711Z,21.10
2022-11-17T08:00:40.522Z,20.37
2022-11-17T08:05:43.940Z,21.23
2022-11-17T08:10:45.748Z,19.63
2022-11-17T08:15:47.596Z,21.77
2022-11-17T08:20:50.595Z,20.63
2022-11-17T08:25:52.315Z,21.47
2022-11-17T08:30:54.181Z,22.47
2022-11-17T08:35:58.307Z,22.00
2022-11-17T08:41:02.390Z,21.27
2022-11-17T08:46:04.260Z,23.37
2022-11-17T08:51:08.153Z,22.30
2022-11-17T08:56:10.907Z,23.73
2022-11-17T09:01:15.521Z,22.10
2022-11-17T09:06:19.962Z,23.13
2022-11-17T09:11:21.732Z,22.33
2022-11-17T09:16:25.192Z,21.87
2022-11-17T09:21:28.705Z,21.50
2022-11-17T09:26:30.473Z,19.33
2022-11-17T09:31:32.455Z,21.07
2022-11-17T09:36:36.595Z,21.27
2022-11-17T09:41:40.898Z,19.40
2022-11-17T09:46:50.486Z,19.57
2022-11-17T09:51:53.593Z,18.10
2022-11-17T09:56:55.383Z,18.37
2022-11-17T10:01:57.904Z,17.70
2022-11-17T10:07:03.465Z,18.07
2022-11-17T10:12:13.807Z,16.90
2022-11-17T10:17:15.569Z,15.93
2022-11-17T10:22:23.254Z,15.37
2022-11-17T10:27:25.953Z,15.73
2022-11-17T10:32:28.051Z,15.27
2022-11-17T10:37:31.287Z,14.87
2022-11-17T10:42:32.996Z,15.93
2022-11-17T10:47:39.098Z,14.20
2022-11-17T10:52:42.166Z,16.73
2022-11-17T10:57:44.341Z,14.53
2022-11-17T11:02:46.044Z,15.37
2022-11-17T11:07:49.072Z,14.17
2022-11-17T11:12:53.904Z,13.47
2022-11-17T11:17:55.629Z,13.53
2022-11-17T11:23:00.583Z,13.30
2022-11-17T11:28:08.598Z,13.27
2022-11-17T11:33:21.955Z,13.20
2022-11-17T11:38:41.262Z,12.43
2022-11-17T11:43:47.498Z,12.00
2022-11-17T11:48:49.316Z,13.73
2022-11-17T11:53:54.445Z,12.80
2022-11-17T11:58:59.285Z,11.30
2022-11-17T12:04:07.491Z,10.80
2022-11-17T12:09:40.982Z,11.10
2022-11-17T12:15:07.308Z,11.10
2022-11-17T12:21:07.057Z,11.27
2022-11-17T12:26:19.633Z,9.53
2022-11-17T12:31:42.019Z,10.50
2022-11-17T12:36:44.201Z,10.40
2022-11-17T12:42:06.617Z,10.40
2022-11-17T12:47:09.899Z,10.60
2022-11-17T12:52:13.448Z,10.80
2022-11-17T12:57:17.198Z,10.50
2022-11-17T13:02:26.536Z,10.00
2022-11-17T13:07:28.368Z,9.67
2022-11-17T13:12:32.467Z,9.63
2022-11-17T13:17:39.299Z,9.57
2022-11-17T13:22:42.159Z,9.57
2022-11-17T13:27:49.240Z,9.37
2022-11-17T13:32:54.898Z,9.00
2022-11-17T13:38:04.773Z,9.10
2022-11-17T13:43:11.377Z,9.30
2022-11-17T13:48:32.175Z,9.47
2022-11-17T13:53:34.131Z,9.93
2022-11-17T13:58:38.149Z,9.20
2022-11-17T14:03:40.409Z,8.90
2022-11-17T14:08:43.164Z,8.73
2022-11-17T14:13:46.986Z,8.60
2022-11-17T14:18:59.812Z,8.67
2022-11-17T14:24:06.992Z,8.90
2022-11-17T14:29:10.817Z,8.83
2022-11-17T14:34:12.991Z,8.23
2022-11-17T14:39:16.077Z,8.03
2022-11-17T14:44:19.567Z,8.67
2022-11-17T14:49:21.431Z,8.87
2022-11-17T14:54:23.358Z,7.60
2022-11-17T14:59:26.611Z,9.10
2022-11-17T15:04:49.478Z,7.83
2022-11-17T15:09:50.166Z,8.70
2022-11-17T15:14:53.640Z,8.40
2022-11-17T15:19:55.605Z,8.30
2022-11-17T15:24:57.369Z,8.17
2022-11-17T15:30:00.553Z,8.80
2022-11-17T15:35:02.402Z,7.77
2022-11-17T15:40:05.329Z,9.63
2022-11-17T15:45:09.407Z,9.60
2022-11-17T15:50:11.211Z,10.30
2022-11-17T15:55:13.978Z,9.53
2022-11-17T16:00:18.204Z,10.53
2022-11-17T16:05:20.558Z,9.10
2022-11-17T16:10:22.305Z,10.30
2022-11-17T16:15:25.351Z,10.37
2022-11-17T16:20:27.206Z,10.87
2022-11-17T16:25:29.050Z,10.30
2022-11-17T16:30:35.452Z,10.73
2022-11-17T16:35:37.623Z,10.10
2022-11-17T16:40:39.863Z,10.90
2022-11-17T16:45:44.511Z,10.77
2022-11-17T16:50:46.821Z,12.93
2022-11-17T16:55:48.551Z,9.40
2022-11-17T17:00:51.668Z,10.10
2022-11-17T17:05:53.490Z,9.77
2022-11-17T17:10:55.228Z,10.93
2022-11-17T17:16:01.961Z,10.90
2022-11-17T17:21:04.240Z,9.10
2022-11-17T17:26:06.997Z,9.33
2022-11-17T17:31:10.145Z,7.90
2022-11-17T17:36:12.788Z,10.00
2022-11-17T17:41:15.544Z,9.40
2022-11-17T17:46:18.925Z,8.23
2022-11-17T17:51:21.294Z,8.60
2022-11-17T17:56:23.502Z,8.43
2022-11-17T18:01:27.401Z,7.90
2022-11-17T18:06:29.333Z,8.30
2022-11-17T18:11:31.258Z,8.80
2022-11-17T18:16:34.474Z,8.97
2022-11-17T18:21:36.510Z,9.57
2022-11-17T18:26:39.324Z,8.80
2022-11-17T18:31:42.736Z,8.97
2022-11-17T18:36:44.540Z,8.63
2022-11-17T18:41:47.020Z,8.27
2022-11-17T18:46:50.146Z,9.40
2022-11-17T18:51:51.896Z,9.00
2022-11-17T18:56:53.604Z,9.60
2022-11-17T19:01:56.674Z,8.40
2022-11-17T19:06:58.504Z,9.13
2022-11-17T19:12:00.406Z,10.23
2022-11-17T19:17:03.533Z,9.20
2022-11-17T19:22:05.306Z,9.30
2022-11-17T19:27:08.288Z,10.23
2022-11-17T19:32:11.589Z,9.50
2022-11-17T19:37:13.375Z,9.73
2022-11-17T19:42:15.168Z,9.13
2022-11-17T19:47:18.575Z,9.13
2022-11-17T19:52:21.851Z,8.90
2022-11-17T19:57:23.655Z,10.33
2022-11-17T20:02:26.879Z,10.03
2022-11-17T20:07:28.814Z,9.47
2022-11-17T20:12:33.427Z,11.07
2022-11-17T20:17:36.773Z,10.30
2022-11-17T20:22:38.696Z,10.13
2022-11-17T20:27:40.508Z,10.33
2022-11-17T20:32:43.689Z,9.93
2022-11-17T20:37:45.530Z,8.87
2022-11-17T20:42:47.314Z,8.90
2022-11-17T20:47:50.453Z,9.30
2022-11-17T20:52:52.245Z,9.83
2022-11-17T20:57:53.965Z,9.70
2022-11-17T21:02:57.105Z,9.87
2022-11-17T21:07:58.879Z,9.80
2022-11-17T21:13:00.652Z,10.30
2022-11-17T21:18:22.652Z,10.60
2022-11-17T21:23:24.426Z,10.07
2022-11-17T21:28:27.232Z,10.43
2022-11-17T21:33:30.439Z,10.43
2022-11-17T21:38:32.329Z,10.27
2022-11-17T21:43:35.593Z,11.23
2022-11-17T21:48:39.031Z,11.03
2022-11-17T21:53:41.430Z,11.07
2022-11-17T21:58:43.538Z,11.47
2022-11-17T22:03:46.664Z,10.47
2022-11-17T22:08:48.614Z,10.80
2022-11-17T22:13:50.399Z,11.00
2022-11-17T22:18:53.605Z,10.97
2022-11-17T22:23:55.512Z,11.63
2022-11-17T22:28:57.458Z,10.40
2022-11-17T22:34:00.716Z,11.10
2022-11-17T22:39:02.730Z,10.90
2022-11-17T22:44:04.815Z,10.80
2022-11-17T22:49:08.022Z,10.73
2022-11-17T22:54:09.832Z,10.57
2022-11-17T22:59:11.652Z,10.77
2022-11-17T23:04:16.326Z,10.33
2022-11-17T23:09:18.409Z,10.40
2022-11-17T23:14:20.264Z,10.10
2022-11-17T23:19:23.528Z,10.20
2022-11-17T23:24:25.269Z,9.50
2022-11-17T23:29:27.781Z,9.33
2022-11-17T23:34:30.897Z,9.60
2022-11-17T23:39:33.351Z,9.00
2022-11-17T23:44:35.110Z,9.23
2022-11-17T23:49:38.322Z,9.17
2022-11-17T23:54:40.054Z,9.20
2022-11-17T23:59:41.828Z,9.13
